DAAG/ALG METAR and TAF weather

Enter ICAO airport designator
Station Type Date Time Source
DAAG METAR 2022/06/28 23:30 UTC NOAA

DAAG 282330Z 09002KT CAVOK 22/19 Q1016


Station Type Date Time Source
DAAG Decoded METAR 2022/06/28 23:30 UTC NOAA

Dar-El-Beida, Algeria (DAAG) 36-43N 003-15E 25M
Jun 28, 2022 - 07:30 PM EDT / 2022.06.28 2330 UTC
Wind: from the E (090 degrees) at 2 MPH (2 KT):0
Visibility: greater than 7 mile(s):0
Temperature: 71 F (22 C)
Dew Point: 66 F (19 C)
Relative Humidity: 83%
Pressure (altimeter): 30.00 in. Hg (1016 hPa)
ob: DAAG 282330Z 09002KT CAVOK 22/19 Q1016
cycle: 23

Station Type Date Time Source
DAAG TAF 2022/06/28 18:33 UTC NOAA

TAF TAF DAAG 281700Z 2818/2918 06012KT 9999 FEW026
BECMG 2820/2822 VRB02KT PROB30
TEMPO 2904/2907 3000 BR
BECMG 2910/2912 04012KT

Example: see airport list